Time;durP1;ratioP1;P1;durP2;ratioP2;P2;SDS_P1;SDS_P2;PMS_P1;PMS_P2;Temp;Humidity;BMP_temperature;BMP_pressure;BME280_temperature;BME280_humidity;BME280_pressure;Samples;Min_cycle;Max_cycle;Signal;HPM_P1;HPM_P2
2022/09/12 00:02:52;;;;;;;8.37;4.60;;;;;;;16.96;61.92;98132.97;8316125;28;20233;-77
2022/09/12 00:06:55;;;;;;;4.83;4.43;;;;;;;16.96;62.13;98129.50;8316057;28;20244;-77
2022/09/12 00:11:05;;;;;;;6.37;4.33;;;;;;;16.92;61.71;98120.19;8316130;28;20240;-77
2022/09/12 00:15:09;;;;;;;4.47;3.93;;;;;;;16.91;61.79;98123.78;8315060;28;20236;-77
2022/09/12 00:19:12;;;;;;;10.37;4.40;;;;;;;16.84;61.83;98123.31;8315815;28;20236;-77
2022/09/12 00:23:15;;;;;;;7.90;3.90;;;;;;;16.93;62.00;98120.09;8315869;28;20225;-77
2022/09/12 00:27:19;;;;;;;4.60;4.13;;;;;;;16.92;61.74;98120.19;8315855;28;20238;-77
2022/09/12 00:31:24;;;;;;;6.43;3.93;;;;;;;16.89;61.50;98121.25;8315740;28;20232;-77
2022/09/12 00:35:26;;;;;;;7.33;4.03;;;;;;;16.87;61.80;98119.66;8315392;28;20252;-78
2022/09/12 00:39:29;;;;;;;4.93;4.43;;;;;;;16.85;61.75;98108.47;8315568;28;20232;-77
2022/09/12 00:43:37;;;;;;;10.93;4.80;;;;;;;16.83;61.94;98105.97;8315234;28;20236;-77
2022/09/12 00:47:40;;;;;;;6.37;5.60;;;;;;;16.73;62.38;98100.47;8315575;28;20244;-77
2022/09/12 00:51:45;;;;;;;10.77;7.87;;;;;;;16.71;63.45;98104.16;8314944;28;20232;-76
2022/09/12 00:55:50;;;;;;;12.63;7.50;;;;;;;16.76;62.94;98095.03;8314550;28;20252;-76
2022/09/12 00:59:58;;;;;;;21.30;8.87;;;;;;;16.73;63.77;98100.47;8314793;28;20235;-76
2022/09/12 01:04:01;;;;;;;14.93;7.67;;;;;;;16.72;63.11;98100.59;8314408;28;20252;-77
2022/09/12 01:08:05;;;;;;;15.23;7.40;;;;;;;16.68;63.30;98097.34;8314637;28;20236;-77
2022/09/12 01:12:08;;;;;;;10.47;6.40;;;;;;;16.71;62.82;98089.28;8314690;28;20240;-77
2022/09/12 01:16:13;;;;;;;11.10;7.07;;;;;;;16.58;63.34;98083.19;8314849;28;20290;-77
2022/09/12 01:20:39;;;;;;;12.30;7.60;;;;;;;16.62;63.49;98079.47;8314733;28;20228;-76
2022/09/12 01:25:03;;;;;;;14.97;8.13;;;;;;;16.61;63.13;98076.00;8311698;28;20299;-77
2022/09/12 01:29:19;;;;;;;9.30;7.10;;;;;;;16.68;63.20;98075.56;8320868;28;20443;-76
2022/09/12 01:33:32;;;;;;;13.17;6.80;;;;;;;16.60;63.59;98073.47;8321077;28;20236;-76
2022/09/12 01:37:40;;;;;;;10.37;7.50;;;;;;;16.53;63.69;98074.84;8320506;28;20236;-78
2022/09/12 01:41:52;;;;;;;10.60;7.63;;;;;;;16.49;63.83;98068.16;8320549;28;20409;-76
2022/09/12 01:46:01;;;;;;;25.00;7.90;;;;;;;16.52;63.85;98063.53;8320052;28;20516;-77
2022/09/12 01:50:07;;;;;;;33.23;8.10;;;;;;;16.50;64.49;98072.44;8320445;28;20237;-77
2022/09/12 01:54:14;;;;;;;13.23;7.93;;;;;;;16.53;64.99;98060.00;8320123;28;20239;-77
2022/09/12 01:58:20;;;;;;;19.67;8.30;;;;;;;16.43;64.98;98058.94;8320016;28;20256;-77
2022/09/12 02:02:27;;;;;;;15.00;7.57;;;;;;;16.46;65.38;98060.50;8319981;28;20233;-77
2022/09/12 02:06:32;;;;;;;15.20;7.47;;;;;;;16.35;65.63;98062.03;8319541;28;20307;-77
2022/09/12 02:10:41;;;;;;;13.50;6.57;;;;;;;16.37;66.25;98056.72;8319715;28;20241;-77
2022/09/12 02:14:47;;;;;;;19.97;6.43;;;;;;;16.27;65.52;98053.06;8319531;28;20275;-77
2022/09/12 02:18:52;;;;;;;11.60;6.80;;;;;;;16.36;66.25;98058.50;8319012;28;20332;-77
2022/09/12 02:22:57;;;;;;;18.47;7.00;;;;;;;16.42;66.69;98058.09;8319243;28;20428;-77
2022/09/12 02:27:05;;;;;;;7.60;6.33;;;;;;;16.38;66.03;98055.78;8319170;28;20306;-78
2022/09/12 02:31:12;;;;;;;11.77;5.93;;;;;;;16.32;66.09;98049.19;8319263;28;20294;-78
2022/09/12 02:35:21;;;;;;;12.77;5.70;;;;;;;16.20;65.92;98044.78;8318870;28;20233;-77
2022/09/12 02:39:25;;;;;;;14.73;5.90;;;;;;;16.31;66.24;98044.06;8318084;28;20244;-77
2022/09/12 02:43:28;;;;;;;11.97;5.80;;;;;;;16.35;65.93;98048.97;8318619;28;20236;-78
2022/09/12 02:47:34;;;;;;;93.17;7.17;;;;;;;15.83;66.21;98055.84;8318501;28;20228;-78
2022/09/12 02:51:37;;;;;;;9.30;5.10;;;;;;;16.18;66.40;98057.97;8318298;28;20237;-78
2022/09/12 02:55:41;;;;;;;5.93;4.63;;;;;;;16.17;65.62;98045.00;8318283;28;20236;-78
2022/09/12 02:59:45;;;;;;;5.47;4.77;;;;;;;16.19;65.76;98046.56;8318081;28;20240;-78
2022/09/12 03:04:00;;;;;;;5.30;4.33;;;;;;;16.25;65.43;98047.09;8317480;28;20233;-77
2022/09/12 03:08:14;;;;;;;12.70;4.20;;;;;;;16.07;65.68;98039.53;8318047;28;20233;-78
2022/09/12 03:12:28;;;;;;;10.77;4.00;;;;;;;16.09;66.09;98032.44;8317448;28;20245;-77
2022/09/12 03:16:35;;;;;;;15.20;4.70;;;;;;;15.78;66.77;98039.66;8317611;28;20420;-78
2022/09/12 03:20:45;;;;;;;13.83;5.07;;;;;;;15.62;67.42;98041.53;8317467;28;20247;-78
2022/09/12 03:24:53;;;;;;;5.97;4.43;;;;;;;16.01;66.44;98046.00;8316732;28;20260;-77
2022/09/12 03:28:58;;;;;;;8.00;5.63;;;;;;;16.06;66.70;98040.47;8317322;28;20263;-77
2022/09/12 03:33:01;;;;;;;8.87;6.17;;;;;;;16.05;65.81;98038.81;8317239;28;20233;-77
2022/09/12 03:37:04;;;;;;;6.90;6.17;;;;;;;16.06;65.79;98039.63;8316982;28;20245;-77
2022/09/12 03:41:07;;;;;;;20.93;6.40;;;;;;;16.07;65.67;98050.00;8316990;28;20295;-77
2022/09/12 03:45:11;;;;;;;7.43;5.63;;;;;;;16.20;65.06;98048.25;8317025;28;20260;-77
2022/09/12 03:49:14;;;;;;;8.33;6.50;;;;;;;16.03;65.59;98044.13;8316670;28;20228;-77
2022/09/12 03:53:17;;;;;;;9.10;6.03;;;;;;;16.11;65.38;98043.63;8316290;28;20442;-77
2022/09/12 03:57:20;;;;;;;6.87;6.23;;;;;;;16.01;65.89;98029.47;8316363;28;20435;-77
2022/09/12 04:01:24;;;;;;;17.07;6.63;;;;;;;15.96;65.96;98036.78;8316550;28;20251;-77
2022/09/12 04:05:27;;;;;;;13.43;6.97;;;;;;;16.05;65.84;98033.59;8315721;28;20236;-77
2022/09/12 04:09:30;;;;;;;22.30;7.23;;;;;;;15.82;65.98;98059.41;8316241;28;20256;-77
2022/09/12 04:13:33;;;;;;;10.87;6.40;;;;;;;15.94;65.68;98043.88;8316030;28;20577;-77
2022/09/12 04:17:37;;;;;;;12.70;6.60;;;;;;;15.99;66.08;98042.66;8316025;28;20562;-77
2022/09/12 04:21:40;;;;;;;8.90;7.17;;;;;;;15.99;66.27;98054.84;8315835;28;20240;-77
2022/09/12 04:25:43;;;;;;;10.70;7.23;;;;;;;15.99;65.93;98050.50;8315782;28;20233;-77
2022/09/12 04:29:45;;;;;;;11.07;7.93;;;;;;;15.96;66.27;98055.91;8315483;28;20279;-76
2022/09/12 04:33:53;;;;;;;11.53;7.77;;;;;;;16.08;65.43;98049.03;8314690;28;20232;-77
2022/09/12 04:37:56;;;;;;;9.00;8.10;;;;;;;16.10;65.25;98046.31;8314820;28;20455;-77
2022/09/12 04:41:58;;;;;;;11.00;9.13;;;;;;;15.96;65.46;98047.25;8314978;28;20276;-77
2022/09/12 04:46:05;;;;;;;11.60;10.40;;;;;;;16.04;65.28;98034.50;8314910;28;20451;-78
2022/09/12 04:50:09;;;;;;;15.10;10.33;;;;;;;16.18;65.50;98038.81;8314528;28;20229;-78
2022/09/12 04:54:14;;;;;;;18.07;10.70;;;;;;;15.97;66.06;98049.75;8314346;28;20232;-78
2022/09/12 04:58:17;;;;;;;15.10;9.80;;;;;;;16.06;65.86;98048.28;8314506;28;20252;-79
2022/09/12 05:02:20;;;;;;;89.43;10.27;;;;;;;15.67;66.32;98047.31;8314066;28;20228;-78
2022/09/12 05:06:26;;;;;;;53.73;9.70;;;;;;;15.74;66.34;98058.22;8314184;28;20241;-78
2022/09/12 05:10:29;;;;;;;11.90;10.63;;;;;;;15.84;66.93;98059.31;8314284;28;20245;-78
2022/09/12 05:14:33;;;;;;;15.33;11.73;;;;;;;15.91;66.64;98057.13;8314568;28;20233;-78
2022/09/12 05:18:36;;;;;;;16.37;11.23;;;;;;;15.94;66.51;98065.63;8314248;28;20237;-78
2022/09/12 05:22:40;;;;;;;16.77;11.23;;;;;;;15.89;66.57;98062.44;8314370;28;20225;-79
2022/09/12 05:26:42;;;;;;;14.87;10.00;;;;;;;16.02;66.21;98062.50;8313835;28;20241;-79
2022/09/12 05:30:45;;;;;;;30.83;9.70;;;;;;;15.76;66.00;98056.34;8314004;28;20274;-79
2022/09/12 05:34:48;;;;;;;9.87;8.93;;;;;;;15.98;65.81;98069.69;8313463;28;20506;-78
2022/09/12 05:38:53;;;;;;;10.27;8.40;;;;;;;15.97;65.81;98070.66;8313962;28;20241;-78
2022/09/12 05:42:56;;;;;;;10.33;7.57;;;;;;;16.00;65.53;98070.44;8313865;28;20236;-78
2022/09/12 05:46:59;;;;;;;28.27;8.67;;;;;;;15.64;66.56;98065.75;8313913;28;20228;-79
2022/09/12 05:51:03;;;;;;;8.03;7.13;;;;;;;16.01;66.14;98076.47;8314058;28;20550;-76
2022/09/12 05:55:08;;;;;;;5.70;5.20;;;;;;;15.94;66.07;98080.44;8314024;28;20424;-78
2022/09/12 05:59:12;;;;;;;9.53;5.17;;;;;;;15.92;65.34;98082.31;8313693;28;20449;-78
2022/09/12 06:03:15;;;;;;;16.90;4.80;;;;;;;15.73;65.90;98083.50;8313439;28;20236;-77
2022/09/12 06:07:17;;;;;;;13.73;5.40;;;;;;;15.88;65.85;98088.66;8313502;28;20252;-77
2022/09/12 06:11:22;;;;;;;20.67;4.70;;;;;;;15.67;65.02;98090.81;8313686;28;20241;-76
2022/09/12 06:15:25;;;;;;;6.23;4.53;;;;;;;15.96;64.94;98096.84;8318688;28;20233;-76
2022/09/12 06:19:28;;;;;;;7.20;5.23;;;;;;;15.95;65.46;98097.78;8319227;28;20243;-77
2022/09/12 06:23:31;;;;;;;8.50;5.13;;;;;;;15.98;65.08;98100.22;8318954;28;20237;-77
2022/09/12 06:27:35;;;;;;;6.87;6.00;;;;;;;16.03;64.72;98098.97;8319013;28;20232;-77
2022/09/12 06:31:40;;;;;;;15.87;6.90;;;;;;;15.99;65.50;98097.50;8318897;28;20248;-77
2022/09/12 06:35:43;;;;;;;11.27;6.87;;;;;;;16.18;65.46;98105.00;8318669;28;20435;-77
2022/09/12 06:39:47;;;;;;;7.93;7.10;;;;;;;16.18;65.67;98091.06;8318417;28;20283;-76
2022/09/12 06:43:51;;;;;;;8.10;7.27;;;;;;;16.18;65.79;98091.94;8318042;28;20225;-76
2022/09/12 06:47:55;;;;;;;8.00;7.30;;;;;;;16.28;64.65;98086.06;8318497;28;20240;-77
2022/09/12 06:51:58;;;;;;;8.50;7.80;;;;;;;16.16;65.42;98082.50;8318100;28;20237;-77
2022/09/12 06:56:02;;;;;;;7.80;7.10;;;;;;;16.34;65.44;98083.06;8318072;28;20424;-77
2022/09/12 07:00:08;;;;;;;8.87;7.63;;;;;;;16.38;65.26;98080.16;8317796;28;20240;-78
2022/09/12 07:04:11;;;;;;;10.73;7.80;;;;;;;16.46;64.91;98090.09;8317563;28;20260;-78
2022/09/12 07:08:14;;;;;;;8.53;7.83;;;;;;;16.48;65.48;98087.38;8317611;28;20570;-78
2022/09/12 07:12:16;;;;;;;22.23;8.50;;;;;;;16.43;65.48;98087.69;8317496;28;20520;-78
2022/09/12 07:16:21;;;;;;;13.83;8.67;;;;;;;16.59;64.64;98080.50;8317420;28;20237;-78
2022/09/12 07:20:24;;;;;;;24.07;9.70;;;;;;;16.49;65.58;98074.22;8317408;28;20434;-77
2022/09/12 07:24:27;;;;;;;10.70;9.33;;;;;;;16.75;65.57;98072.47;8316562;28;20243;-77
2022/09/12 07:28:32;;;;;;;11.77;10.30;;;;;;;16.73;65.25;98071.72;8317082;28;20243;-77
2022/09/12 07:32:36;;;;;;;28.80;12.07;;;;;;;16.76;65.62;98073.28;8316982;28;20239;-78
2022/09/12 07:36:39;;;;;;;10.93;9.93;;;;;;;16.78;66.53;98085.31;8316780;28;20437;-78
2022/09/12 07:40:42;;;;;;;35.53;11.40;;;;;;;16.66;65.33;98086.16;8316555;28;20241;-78
2022/09/12 07:44:45;;;;;;;11.17;10.07;;;;;;;16.97;65.68;98084.94;8316610;28;20513;-77
2022/09/12 07:48:52;;;;;;;11.07;9.97;;;;;;;17.04;64.90;98089.75;8315987;28;20237;-77
2022/09/12 07:52:55;;;;;;;12.10;10.90;;;;;;;16.85;65.44;98091.00;8316419;28;20229;-78
2022/09/12 07:56:58;;;;;;;12.23;11.03;;;;;;;17.20;64.92;98095.59;8316353;28;20287;-78
2022/09/12 08:01:04;;;;;;;12.90;11.17;;;;;;;17.42;64.83;98097.56;8315898;28;20432;-77
2022/09/12 08:05:09;;;;;;;12.93;11.57;;;;;;;17.45;64.86;98094.72;8315729;28;20240;-75
2022/09/12 08:09:14;;;;;;;11.23;10.13;;;;;;;17.69;64.37;98104.41;8315894;28;20429;-79
2022/09/12 08:13:16;;;;;;;11.93;10.83;;;;;;;17.57;64.75;98104.34;8315707;28;20240;-80
2022/09/12 08:17:19;;;;;;;13.67;11.07;;;;;;;17.84;64.01;98105.06;8315634;28;20239;-79
2022/09/12 08:21:25;;;;;;;13.13;11.90;;;;;;;17.91;64.56;98103.72;8315394;28;20260;-79
2022/09/12 08:25:27;;;;;;;10.47;3.93;;;;;;;18.48;64.36;98110.06;8315698;28;20258;-82
2022/09/12 08:29:30;;;;;;;10.10;5.63;;;;;;;18.85;63.04;98107.31;8315572;28;20260;-81
2022/09/12 08:33:33;;;;;;;8.40;5.57;;;;;;;19.29;61.38;98100.44;8315342;28;20248;-82
2022/09/12 08:37:38;;;;;;;15.70;14.20;;;;;;;18.54;61.91;98102.59;8314878;28;20237;-82
2022/09/12 08:41:42;;;;;;;16.10;14.60;;;;;;;18.42;62.86;98098.25;8314847;28;20242;-82
2022/09/12 08:45:49;;;;;;;10.53;9.47;;;;;;;19.00;61.23;98092.19;8315281;28;20232;-82
2022/09/12 08:49:57;;;;;;;13.27;9.87;;;;;;;19.47;59.94;98100.78;8314581;28;20304;-81
2022/09/12 08:54:02;;;;;;;13.83;11.90;;;;;;;19.83;59.15;98091.78;8315146;28;20279;-81
2022/09/12 08:58:12;;;;;;;11.00;8.67;;;;;;;19.98;58.80;98095.00;8314693;28;20236;-80
2022/09/12 09:02:33;;;;;;;15.97;14.37;;;;;;;19.83;58.19;98110.19;8314768;28;20235;-81
2022/09/12 09:06:46;;;;;;;13.13;11.83;;;;;;;20.83;57.46;98102.03;8314952;28;20428;-84
2022/09/12 09:10:54;;;;;;;15.33;11.20;;;;;;;21.68;55.39;98097.44;8314829;28;20283;-89
2022/09/12 09:15:10;;;;;;;19.17;11.30;;;;;;;21.72;55.64;98105.91;8314881;28;20473;-74
2022/09/12 09:19:17;;;;;;;12.80;11.60;;;;;;;21.75;55.11;98098.56;8314308;28;20247;-76
2022/09/12 09:23:24;;;;;;;13.83;12.33;;;;;;;22.31;53.92;98086.56;8314584;28;20255;-76
2022/09/12 09:27:32;;;;;;;15.13;12.27;;;;;;;22.60;54.02;98085.75;8314342;28;20232;-75
2022/09/12 09:31:45;;;;;;;14.67;12.90;;;;;;;23.03;52.53;98079.94;8314072;28;20229;-76
2022/09/12 09:35:54;;;;;;;19.23;13.27;;;;;;;23.22;51.61;98080.84;8313456;28;20236;-76
2022/09/12 09:40:01;;;;;;;13.83;10.60;;;;;;;23.64;50.48;98075.09;8314004;28;20241;-76
2022/09/12 09:44:06;;;;;;;12.50;11.40;;;;;;;23.75;49.71;98074.88;8313808;28;20426;-76
2022/09/12 09:48:16;;;;;;;13.47;12.27;;;;;;;24.23;49.34;98072.91;8317829;28;20332;-77
2022/09/12 09:52:25;;;;;;;10.73;9.63;;;;;;;24.50;47.71;98066.69;8320081;28;20404;-77
2022/09/12 09:56:29;;;;;;;11.80;10.70;;;;;;;24.20;47.05;98070.56;8320218;28;20229;-80
2022/09/12 10:00:34;;;;;;;12.30;11.20;;;;;;;24.44;46.56;98080.50;8319947;28;20233;-78
2022/09/12 10:04:40;;;;;;;11.27;10.17;;;;;;;24.77;45.92;98060.44;8320183;28;20469;-80
2022/09/12 10:08:43;;;;;;;12.40;11.13;;;;;;;23.77;47.17;98061.50;8320205;28;20247;-80
2022/09/12 10:12:46;;;;;;;20.13;9.27;;;;;;;24.82;45.60;98049.38;8319694;28;20283;-76
2022/09/12 10:16:52;;;;;;;10.57;9.27;;;;;;;25.07;45.58;98058.28;8319292;28;20282;-76
2022/09/12 10:20:55;;;;;;;10.17;9.17;;;;;;;24.69;45.01;98049.78;8319485;28;20234;-77
2022/09/12 10:24:59;;;;;;;10.00;7.90;;;;;;;25.43;45.39;98058.13;8319486;28;20407;-76
2022/09/12 10:29:11;;;;;;;8.97;7.90;;;;;;;25.42;43.52;98053.00;8319387;28;20280;-79
2022/09/12 10:33:15;;;;;;;8.70;7.80;;;;;;;25.63;43.34;98055.25;8319224;28;20239;-78
2022/09/12 10:37:24;;;;;;;8.60;6.47;;;;;;;25.58;43.21;98041.63;8318908;28;20233;-78
2022/09/12 10:41:35;;;;;;;11.63;8.30;;;;;;;25.97;43.04;98039.25;8318728;28;20256;-77
2022/09/12 10:45:38;;;;;;;13.67;6.47;;;;;;;25.88;43.41;98034.91;8318885;28;20233;-78
2022/09/12 10:49:42;;;;;;;8.87;8.03;;;;;;;25.87;42.68;98041.19;8318697;28;20520;-78
2022/09/12 10:53:46;;;;;;;12.87;7.70;;;;;;;25.21;44.14;98040.97;8318788;28;20236;-78
2022/09/12 10:58:04;;;;;;;12.57;8.60;;;;;;;25.51;43.04;98038.78;8317445;28;20226;-80
2022/09/12 11:02:15;;;;;;;8.50;7.43;;;;;;;24.85;44.38;98035.81;8318123;28;20246;-80
2022/09/12 11:06:22;;;;;;;10.60;8.10;;;;;;;24.67;44.01;98029.75;8318236;28;20500;-79
2022/09/12 11:10:32;;;;;;;8.50;6.70;;;;;;;25.43;43.63;98033.47;8318136;28;20239;-79
2022/09/12 11:14:53;;;;;;;8.13;6.53;;;;;;;25.53;43.68;98031.50;8317980;28;20253;-79
2022/09/12 11:19:18;;;;;;;8.93;8.00;;;;;;;25.30;43.18;98021.50;8317629;28;20293;-77
2022/09/12 11:23:49;;;;;;;10.17;7.43;;;;;;;24.85;43.98;98006.69;8317730;28;20236;-78
2022/09/12 11:28:04;;;;;;;8.33;7.07;;;;;;;25.35;44.29;98005.09;8314803;28;20232;-79
2022/09/12 11:32:20;;;;;;;8.90;6.50;;;;;;;25.53;43.80;98011.13;8317665;28;20314;-80
2022/09/12 11:36:34;;;;;;;9.77;8.00;;;;;;;25.78;41.99;97999.72;8317154;28;20237;-78
2022/09/12 11:40:43;;;;;;;8.73;7.13;;;;;;;25.73;42.66;98001.06;8316733;28;20660;-79
2022/09/12 11:44:48;;;;;;;9.20;8.03;;;;;;;25.42;42.35;98000.81;8317064;28;20286;-79
2022/09/12 11:48:55;;;;;;;7.90;6.00;;;;;;;25.46;42.44;97998.69;8316429;28;20270;-78
2022/09/12 11:53:02;;;;;;;6.87;6.10;;;;;;;25.39;42.53;97995.84;8316794;28;20236;-80
2022/09/12 11:57:13;;;;;;;7.97;5.93;;;;;;;25.14;41.83;97995.72;8316717;28;20237;-79
2022/09/12 12:01:19;;;;;;;6.63;5.43;;;;;;;25.56;39.31;97994.06;8316963;28;20251;-85
2022/09/12 12:05:24;;;;;;;5.90;5.40;;;;;;;25.58;39.34;97984.13;8316646;28;20469;-82
2022/09/12 12:09:27;;;;;;;8.83;5.03;;;;;;;25.47;40.07;97979.13;8315942;28;20320;-83
2022/09/12 12:13:33;;;;;;;5.03;4.40;;;;;;;24.78;37.51;97979.19;8315915;28;20232;-85
2022/09/12 12:17:36;;;;;;;6.10;4.13;;;;;;;24.61;38.50;97972.97;8316861;28;20274;-87
2022/09/12 12:21:40;;;;;;;5.63;4.40;;;;;;;24.56;39.25;97976.09;8317609;28;20309;-84
2022/09/12 12:25:52;;;;;;;5.30;4.43;;;;;;;24.65;39.91;97970.84;8316732;28;20232;-80
2022/09/12 12:29:56;;;;;;;6.60;3.93;;;;;;;24.50;40.37;97963.47;8315845;28;20229;-85
2022/09/12 12:34:05;;;;;;;5.07;4.00;;;;;;;24.45;39.76;97963.09;8315791;28;20236;-80
2022/09/12 12:38:29;;;;;;;5.10;4.47;;;;;;;24.24;38.98;97960.81;8315719;28;20243;-82
2022/09/12 12:43:03;;;;;;;4.53;3.77;;;;;;;24.69;40.99;97957.09;8315759;28;20238;-85
2022/09/12 12:47:15;;;;;;;4.47;4.00;;;;;;;24.81;39.47;97955.03;8315564;28;20243;-87
2022/09/12 12:51:28;;;;;;;4.60;3.90;;;;;;;24.96;39.73;97949.97;8316155;28;20448;-84
2022/09/12 12:55:34;;;;;;;4.67;4.13;;;;;;;25.14;38.69;97950.69;8315857;28;20244;-81
2022/09/12 12:59:37;;;;;;;5.03;3.57;;;;;;;25.32;38.59;97944.47;8315274;28;20233;-81
2022/09/12 13:03:44;;;;;;;4.17;3.80;;;;;;;25.16;37.41;97942.56;8316479;28;20236;-86
2022/09/12 13:07:47;;;;;;;6.07;4.10;;;;;;;24.85;39.08;97937.84;8316538;28;20618;-85
2022/09/12 13:11:58;;;;;;;6.93;4.23;;;;;;;24.64;39.15;97932.13;8315423;28;20233;-84
2022/09/12 13:16:01;;;;;;;4.40;3.70;;;;;;;24.56;38.37;97928.44;8316376;28;20249;-87
2022/09/12 13:20:14;;;;;;;5.10;4.00;;;;;;;24.72;38.83;97924.22;8316634;28;20240;-86
2022/09/12 13:24:33;;;;;;;4.10;3.70;;;;;;;24.61;39.93;97922.66;8322183;28;20235;-88
2022/09/12 13:28:36;;;;;;;3.90;3.50;;;;;;;24.69;38.41;97919.22;8322799;28;20236;-89
2022/09/12 13:32:39;;;;;;;3.70;3.03;;;;;;;24.69;39.34;97908.63;8322596;28;20232;-87
2022/09/12 13:36:51;;;;;;;4.97;3.60;;;;;;;24.57;38.89;97903.59;8322754;28;20278;-85
2022/09/12 13:41:06;;;;;;;3.97;3.57;;;;;;;24.38;37.10;97895.88;8321963;28;20535;-88
2022/09/12 13:45:14;;;;;;;5.37;4.03;;;;;;;24.28;38.70;97892.53;8324563;28;20229;-85
2022/09/12 13:49:20;;;;;;;4.10;3.70;;;;;;;24.30;39.09;97886.09;8328514;28;20544;-86
2022/09/12 13:53:27;;;;;;;6.63;4.40;;;;;;;24.48;38.26;97890.47;8326604;28;20418;-87
2022/09/12 13:57:32;;;;;;;5.23;4.10;;;;;;;24.55;38.56;97894.19;8322828;28;20313;-82
2022/09/12 14:01:39;;;;;;;7.13;4.23;;;;;;;24.80;39.03;97894.28;8321372;28;20295;-89
2022/09/12 14:05:44;;;;;;;5.27;3.90;;;;;;;24.45;38.80;97881.03;8321206;28;20429;-83
2022/09/12 14:09:54;;;;;;;5.50;4.63;;;;;;;24.48;38.87;97882.53;8319733;28;20236;-78
2022/09/12 14:13:57;;;;;;;4.57;4.10;;;;;;;24.70;39.44;97884.66;8320099;28;20236;-81
2022/09/12 14:18:02;;;;;;;5.37;3.83;;;;;;;24.89;38.79;97882.72;8320291;28;20236;-80
2022/09/12 14:22:08;;;;;;;4.47;3.80;;;;;;;24.67;39.55;97877.00;8319588;28;20241;-81
2022/09/12 14:26:14;;;;;;;5.90;4.13;;;;;;;24.35;38.66;97880.31;8319879;28;20246;-80
2022/09/12 14:30:25;;;;;;;4.47;4.03;;;;;;;24.51;41.12;97872.50;8319768;28;20252;-79
2022/09/12 14:34:28;;;;;;;6.27;4.93;;;;;;;24.40;37.87;97868.25;8318495;28;20244;-83
2022/09/12 14:38:35;;;;;;;5.70;4.00;;;;;;;24.84;38.92;97861.19;8319722;28;20260;-82
2022/09/12 14:42:41;;;;;;;4.13;3.73;;;;;;;25.19;38.96;97865.41;8319193;28;20235;-83
2022/09/12 14:46:44;;;;;;;5.33;3.50;;;;;;;25.39;37.71;97852.72;8317267;28;20552;-84
2022/09/12 14:50:49;;;;;;;5.57;4.30;;;;;;;25.42;38.59;97846.25;8318910;28;20241;-79
2022/09/12 14:55:00;;;;;;;6.20;4.57;;;;;;;25.12;37.42;97848.50;8317344;28;20243;-83
2022/09/12 14:59:25;;;;;;;6.33;3.77;;;;;;;25.42;39.89;97844.44;8318599;28;20233;-83
2022/09/12 15:03:31;;;;;;;5.93;5.03;;;;;;;25.10;37.08;97839.91;8318063;28;20256;-82
2022/09/12 15:07:35;;;;;;;7.23;4.40;;;;;;;25.41;36.89;97834.00;8317822;28;20459;-83
2022/09/12 15:11:37;;;;;;;4.70;4.30;;;;;;;25.39;39.13;97834.16;8318637;28;20236;-84
2022/09/12 15:15:43;;;;;;;5.90;4.80;;;;;;;25.06;36.67;97831.44;8318087;28;20530;-82
2022/09/12 15:19:46;;;;;;;5.50;4.67;;;;;;;24.77;37.50;97837.19;8319696;28;20228;-83
2022/09/12 15:23:49;;;;;;;6.63;5.70;;;;;;;24.71;38.04;97833.38;8317448;28;20241;-81
2022/09/12 15:27:54;;;;;;;7.00;6.30;;;;;;;24.21;37.88;97834.09;8317857;28;20257;-83
2022/09/12 15:31:58;;;;;;;6.13;5.00;;;;;;;24.81;39.49;97827.94;8317762;28;20242;-83
2022/09/12 15:36:01;;;;;;;8.67;5.27;;;;;;;24.78;37.10;97818.47;8317620;28;20287;-84
2022/09/12 15:40:05;;;;;;;7.30;6.50;;;;;;;24.59;38.30;97824.88;8317378;28;20290;-84
2022/09/12 15:44:11;;;;;;;8.23;6.07;;;;;;;24.29;38.44;97830.66;8317719;28;20230;-84
2022/09/12 15:48:15;;;;;;;5.97;5.23;;;;;;;24.45;39.43;97816.69;8317681;28;20443;-82
2022/09/12 15:52:19;;;;;;;4.97;4.20;;;;;;;24.49;40.45;97815.38;8317105;28;20240;-84
2022/09/12 15:56:22;;;;;;;4.73;4.33;;;;;;;24.23;38.92;97808.31;8317523;28;20231;-82
2022/09/12 16:00:25;;;;;;;5.60;3.50;;;;;;;24.10;40.05;97806.09;8319290;28;20238;-84
2022/09/12 16:04:30;;;;;;;4.30;3.60;;;;;;;24.08;40.51;97810.72;8322329;28;20302;-81
2022/09/12 16:08:33;;;;;;;4.30;3.90;;;;;;;23.93;40.29;97809.63;8317674;28;20231;-81
2022/09/12 16:12:36;;;;;;;5.37;4.10;;;;;;;23.54;40.02;97796.81;8316443;28;20244;-84
2022/09/12 16:16:39;;;;;;;5.73;4.20;;;;;;;23.38;40.81;97798.34;8316407;28;20279;-81
2022/09/12 16:20:43;;;;;;;5.17;3.90;;;;;;;23.35;40.71;97803.09;8316071;28;20243;-83
2022/09/12 16:24:46;;;;;;;5.43;4.37;;;;;;;23.14;41.03;97800.78;8316666;28;20238;-83
2022/09/12 16:28:54;;;;;;;4.93;3.87;;;;;;;23.03;40.95;97797.38;8314931;28;20244;-85
2022/09/12 16:32:57;;;;;;;4.33;3.93;;;;;;;23.02;42.34;97779.03;8315651;28;20237;-86
2022/09/12 16:37:01;;;;;;;4.20;3.80;;;;;;;22.93;42.39;97782.56;8315212;28;20229;-84
2022/09/12 16:41:05;;;;;;;7.77;3.80;;;;;;;22.92;42.45;97786.19;8315332;28;20228;-87
2022/09/12 16:45:08;;;;;;;6.30;4.03;;;;;;;22.68;42.11;97771.78;8314777;28;20229;-85
2022/09/12 16:49:11;;;;;;;5.20;3.83;;;;;;;22.62;42.61;97775.00;8315410;28;20260;-85
2022/09/12 16:53:16;;;;;;;6.97;4.13;;;;;;;22.52;42.85;97771.59;8315394;28;20307;-86
2022/09/12 16:57:19;;;;;;;6.10;4.53;;;;;;;22.47;42.76;97765.94;8315069;28;20239;-84
2022/09/12 17:01:23;;;;;;;6.40;3.80;;;;;;;22.44;42.97;97773.16;8315030;28;20248;-81
2022/09/12 17:05:26;;;;;;;10.17;4.00;;;;;;;22.49;44.07;97763.97;8314230;28;20236;-80
2022/09/12 17:09:30;;;;;;;4.37;3.87;;;;;;;22.38;43.63;97759.72;8314657;28;20240;-80
2022/09/12 17:13:34;;;;;;;6.67;4.53;;;;;;;22.30;43.93;97759.66;8314367;28;20476;-80
2022/09/12 17:17:56;;;;;;;5.07;3.97;;;;;;;22.25;43.76;97757.44;8313837;28;20232;-83
2022/09/12 17:21:59;;;;;;;5.10;4.00;;;;;;;22.29;44.59;97758.78;8314665;28;20248;-88
2022/09/12 17:26:03;;;;;;;4.33;3.67;;;;;;;22.21;45.38;97753.41;8314785;28;20439;-85
2022/09/12 17:30:08;;;;;;;3.70;3.40;;;;;;;22.16;46.00;97755.63;8314915;28;20237;-85
2022/09/12 17:34:13;;;;;;;4.43;3.80;;;;;;;22.10;46.61;97751.78;8314499;28;20236;-84
2022/09/12 17:38:15;;;;;;;5.33;3.77;;;;;;;21.98;46.85;97751.13;8314347;28;20249;-84
2022/09/12 17:42:25;;;;;;;4.03;3.63;;;;;;;21.96;47.81;97755.72;8314371;28;20509;-85
2022/09/12 17:46:31;;;;;;;5.17;4.00;;;;;;;21.88;48.79;97760.91;8314139;28;20325;-81
2022/09/12 17:50:35;;;;;;;6.27;4.60;;;;;;;21.81;50.19;97762.44;8314023;28;20239;-82
2022/09/12 17:54:41;;;;;;;6.13;4.47;;;;;;;21.75;50.21;97770.94;8313560;28;20413;-80
2022/09/12 17:58:45;;;;;;;7.90;4.63;;;;;;;21.71;51.00;97783.56;8314319;28;20236;-79
2022/09/12 18:02:49;;;;;;;6.77;4.60;;;;;;;21.62;51.38;97777.34;8313611;28;20256;-78
2022/09/12 18:06:52;;;;;;;5.10;4.60;;;;;;;21.56;51.71;97777.09;8314028;28;20240;-79
2022/09/12 18:11:03;;;;;;;5.53;4.87;;;;;;;21.50;52.29;97778.47;8319932;28;20244;-82
2022/09/12 18:15:09;;;;;;;6.90;5.10;;;;;;;21.39;52.30;97775.97;8319813;28;20527;-78
2022/09/12 18:19:11;;;;;;;5.73;4.90;;;;;;;21.29;52.30;97776.81;8319721;28;20247;-77
2022/09/12 18:23:14;;;;;;;5.50;4.90;;;;;;;21.20;52.75;97772.38;8319428;28;20246;-79
2022/09/12 18:27:17;;;;;;;7.80;4.87;;;;;;;21.11;53.31;97764.47;8319383;28;20236;-80
2022/09/12 18:31:23;;;;;;;5.13;4.60;;;;;;;21.12;52.90;97764.34;8319202;28;20240;-76
2022/09/12 18:35:25;;;;;;;5.03;4.53;;;;;;;21.02;52.75;97768.81;8319105;28;20238;-78
2022/09/12 18:39:28;;;;;;;6.60;4.83;;;;;;;20.98;52.15;97770.03;8319057;28;20332;-77
2022/09/12 18:43:31;;;;;;;7.20;4.70;;;;;;;20.93;52.48;97765.19;8318892;28;20236;-80
2022/09/12 18:47:35;;;;;;;10.53;4.80;;;;;;;20.87;52.43;97773.63;8319001;28;20237;-81
2022/09/12 18:51:40;;;;;;;6.43;4.43;;;;;;;20.83;52.76;97777.53;8318983;28;20456;-78
2022/09/12 18:55:43;;;;;;;5.17;4.67;;;;;;;20.66;52.82;97768.50;8318416;28;20246;-78
2022/09/12 18:59:46;;;;;;;5.30;4.70;;;;;;;20.75;52.69;97777.34;8318760;28;20239;-77
2022/09/12 19:03:51;;;;;;;5.43;4.90;;;;;;;20.61;53.42;97768.88;8318067;28;20237;-76
2022/09/12 19:07:54;;;;;;;5.60;5.00;;;;;;;20.65;53.73;97772.91;8318415;28;20430;-76
2022/09/12 19:11:56;;;;;;;11.23;5.20;;;;;;;20.57;53.97;97774.53;8317744;28;20245;-76